createdAt,value
2023-01-09T00:01:38.359Z,98142.40
2023-01-09T00:04:08.197Z,98138.40
2023-01-09T00:06:36.273Z,98148.20
2023-01-09T00:09:04.324Z,98142.00
2023-01-09T00:11:32.456Z,98142.80
2023-01-09T00:14:00.415Z,98140.60
2023-01-09T00:16:28.450Z,98137.80
2023-01-09T00:18:56.817Z,98139.40
2023-01-09T00:21:24.732Z,98137.60
2023-01-09T00:23:54.177Z,98123.40
2023-01-09T00:26:22.286Z,98123.80
2023-01-09T00:28:51.073Z,98127.00
2023-01-09T00:31:19.027Z,98120.80
2023-01-09T00:34:01.077Z,98118.60
2023-01-09T00:36:29.277Z,98113.80
2023-01-09T00:38:57.354Z,98111.00
2023-01-09T00:41:33.117Z,98121.20
2023-01-09T00:44:06.969Z,98111.00
2023-01-09T00:46:38.895Z,98107.80
2023-01-09T00:49:07.095Z,98105.20
2023-01-09T00:51:34.894Z,98113.60
2023-01-09T00:54:02.878Z,98116.80
2023-01-09T00:56:30.756Z,98110.60
2023-01-09T00:58:58.764Z,98117.60
2023-01-09T01:01:26.723Z,98110.20
2023-01-09T01:03:54.844Z,98105.00
2023-01-09T01:06:41.776Z,98095.40
2023-01-09T01:09:09.734Z,98091.40
2023-01-09T01:11:37.720Z,98083.80
2023-01-09T01:14:05.584Z,98085.60
2023-01-09T01:16:33.522Z,98086.60
2023-01-09T01:19:01.433Z,98086.60
2023-01-09T01:21:29.225Z,98084.80
2023-01-09T01:23:57.060Z,98085.80
2023-01-09T01:26:25.021Z,98081.00
2023-01-09T01:28:52.889Z,98087.40
2023-01-09T01:31:21.012Z,98079.80
2023-01-09T01:33:48.780Z,98084.60
2023-01-09T01:36:17.647Z,98089.20
2023-01-09T01:38:47.074Z,98093.80
2023-01-09T01:41:29.427Z,98091.40
2023-01-09T01:44:46.283Z,98096.60
2023-01-09T01:47:14.735Z,98088.40
2023-01-09T01:49:42.756Z,98088.40
2023-01-09T01:52:10.908Z,98082.60
2023-01-09T01:54:38.860Z,98088.40
2023-01-09T01:57:06.682Z,98082.20
2023-01-09T01:59:50.098Z,98078.80
2023-01-09T02:02:20.220Z,98074.40
2023-01-09T02:04:49.634Z,98065.60
2023-01-09T02:07:17.593Z,98064.20
2023-01-09T02:09:46.272Z,98065.60
2023-01-09T02:12:25.014Z,98065.20
2023-01-09T02:15:00.224Z,98069.60
2023-01-09T02:18:06.051Z,98065.00
2023-01-09T02:20:39.439Z,98063.20
2023-01-09T02:23:26.945Z,98056.80
2023-01-09T02:26:10.262Z,98040.40
2023-01-09T02:29:00.349Z,98031.80
2023-01-09T02:31:33.582Z,98047.60
2023-01-09T02:34:12.602Z,98044.60
2023-01-09T02:37:17.908Z,98043.60
2023-01-09T02:40:10.044Z,98048.00
2023-01-09T02:42:37.952Z,98040.40
2023-01-09T02:45:06.333Z,98040.20
2023-01-09T02:47:36.680Z,98030.40
2023-01-09T02:50:09.219Z,98025.20
2023-01-09T02:53:03.271Z,98029.00
2023-01-09T02:55:51.830Z,98027.80
2023-01-09T02:59:05.191Z,98025.20
2023-01-09T03:01:57.176Z,98025.40
2023-01-09T03:05:05.389Z,98024.00
2023-01-09T03:07:37.865Z,98023.60
2023-01-09T03:10:18.666Z,98017.80
2023-01-09T03:12:48.557Z,98011.80
2023-01-09T03:15:16.584Z,98003.00
2023-01-09T03:17:47.022Z,98012.00
2023-01-09T03:20:17.950Z,98011.20
2023-01-09T03:22:57.168Z,98008.80
2023-01-09T03:25:25.683Z,98002.60
2023-01-09T03:28:05.745Z,98004.20
2023-01-09T03:30:35.129Z,98000.20
2023-01-09T03:33:03.055Z,98006.20
2023-01-09T03:35:30.782Z,98006.00
2023-01-09T03:37:59.351Z,98003.40
2023-01-09T03:40:27.417Z,97995.00
2023-01-09T03:42:55.345Z,97992.80
2023-01-09T03:45:23.198Z,97992.20
2023-01-09T03:47:52.974Z,97987.60
2023-01-09T03:50:21.241Z,97990.00
2023-01-09T03:52:50.271Z,97984.80
2023-01-09T03:55:18.161Z,97984.40
2023-01-09T03:57:46.050Z,97981.60
2023-01-09T04:00:14.466Z,97978.60
2023-01-09T04:02:43.274Z,97975.80
2023-01-09T04:05:11.585Z,97977.80
2023-01-09T04:07:39.772Z,97969.00
2023-01-09T04:10:08.977Z,97963.40
2023-01-09T04:12:36.890Z,97951.00
2023-01-09T04:15:05.589Z,97955.40
2023-01-09T04:17:33.559Z,97952.40
2023-01-09T04:20:01.600Z,97948.00
2023-01-09T04:22:31.430Z,97944.80
2023-01-09T04:24:59.275Z,97950.40
2023-01-09T04:27:27.255Z,97947.40
2023-01-09T04:29:55.291Z,97945.60
2023-01-09T04:32:23.249Z,97941.20
2023-01-09T04:34:52.021Z,97951.00
2023-01-09T04:37:20.639Z,97947.80
2023-01-09T04:39:49.569Z,97948.00
2023-01-09T04:42:17.476Z,97945.00
2023-01-09T04:44:45.230Z,97945.40
2023-01-09T04:47:13.830Z,97941.80
2023-01-09T04:49:42.939Z,97950.60
2023-01-09T04:52:10.705Z,97947.60
2023-01-09T04:54:39.644Z,97950.80
2023-01-09T04:57:08.305Z,97946.40
2023-01-09T04:59:36.366Z,97939.60
2023-01-09T05:02:04.408Z,97935.80
2023-01-09T05:04:32.813Z,97928.80
2023-01-09T05:07:00.875Z,97923.40
2023-01-09T05:09:28.846Z,97919.00
2023-01-09T05:11:56.954Z,97923.00
2023-01-09T05:14:24.975Z,97921.40
2023-01-09T05:16:52.947Z,97915.40
2023-01-09T05:19:21.546Z,97913.20
2023-01-09T05:21:49.385Z,97920.60
2023-01-09T05:24:17.437Z,97929.00
2023-01-09T05:26:45.393Z,97925.60
2023-01-09T05:29:13.380Z,97920.60
2023-01-09T05:31:41.280Z,97922.80
2023-01-09T05:34:09.248Z,97916.40
2023-01-09T05:36:37.287Z,97920.40
2023-01-09T05:39:05.734Z,97913.20
2023-01-09T05:41:33.637Z,97907.00
2023-01-09T05:44:01.643Z,97914.80
2023-01-09T05:46:29.523Z,97914.40
2023-01-09T05:48:57.362Z,97917.00
2023-01-09T05:51:25.171Z,97911.40
2023-01-09T05:53:53.132Z,97907.80
2023-01-09T05:56:21.197Z,97905.40
2023-01-09T05:58:49.091Z,97907.00
2023-01-09T06:01:17.000Z,97899.00
2023-01-09T06:03:44.936Z,97894.80
2023-01-09T06:06:12.799Z,97890.40
2023-01-09T06:08:40.798Z,97887.60
2023-01-09T06:11:08.712Z,97891.40
2023-01-09T06:13:36.761Z,97895.80
2023-01-09T06:16:05.300Z,97890.80
2023-01-09T06:18:33.249Z,97888.00
2023-01-09T06:21:01.154Z,97880.00
2023-01-09T06:23:29.191Z,97882.20
2023-01-09T06:25:57.060Z,97871.00
2023-01-09T06:28:25.093Z,97876.60
2023-01-09T06:30:53.284Z,97877.00
2023-01-09T06:33:21.327Z,97878.20
2023-01-09T06:35:49.196Z,97874.40
2023-01-09T06:38:17.071Z,97868.40
2023-01-09T06:40:45.959Z,97864.00
2023-01-09T06:43:13.892Z,97871.40
2023-01-09T06:45:44.117Z,97865.00
2023-01-09T06:48:12.466Z,97862.40
2023-01-09T06:50:40.375Z,97859.60
2023-01-09T06:53:08.693Z,97854.00
2023-01-09T06:55:36.856Z,97845.20
2023-01-09T06:58:05.029Z,97843.20
2023-01-09T07:00:33.394Z,97838.20
2023-01-09T07:03:01.352Z,97835.60
2023-01-09T07:05:30.025Z,97836.60
2023-01-09T07:07:57.820Z,97844.60
2023-01-09T07:10:25.979Z,97832.20
2023-01-09T07:12:53.871Z,97835.80
2023-01-09T07:15:22.891Z,97837.60
2023-01-09T07:17:52.400Z,97836.40
2023-01-09T07:20:20.575Z,97837.80
2023-01-09T07:22:48.788Z,97833.00
2023-01-09T07:25:17.034Z,97827.80
2023-01-09T07:27:44.965Z,97827.20
2023-01-09T07:30:14.165Z,97830.20
2023-01-09T07:32:42.112Z,97834.00
2023-01-09T07:35:10.699Z,97835.00
2023-01-09T07:37:38.760Z,97834.40
2023-01-09T07:40:08.443Z,97833.40
2023-01-09T07:42:36.421Z,97830.20
2023-01-09T07:45:06.092Z,97830.60
2023-01-09T07:47:33.960Z,97827.40
2023-01-09T07:50:02.000Z,97831.40
2023-01-09T07:52:30.041Z,97823.60
2023-01-09T07:54:57.932Z,97828.60
2023-01-09T07:57:25.985Z,97835.00
2023-01-09T07:59:53.969Z,97833.40
2023-01-09T08:02:21.810Z,97828.20
2023-01-09T08:04:49.840Z,97829.20
2023-01-09T08:07:17.839Z,97821.40
2023-01-09T08:09:45.750Z,97823.40
2023-01-09T08:12:13.689Z,97826.20
2023-01-09T08:14:41.547Z,97823.20
2023-01-09T08:17:11.650Z,97828.80
2023-01-09T08:19:40.302Z,97822.80
2023-01-09T08:22:08.302Z,97826.80
2023-01-09T08:24:36.818Z,97837.40
2023-01-09T08:27:04.766Z,97834.80
2023-01-09T08:29:32.747Z,97838.40
2023-01-09T08:32:00.748Z,97841.20
2023-01-09T08:34:28.931Z,97845.80
2023-01-09T08:36:56.830Z,97845.20
2023-01-09T08:39:24.852Z,97846.60
2023-01-09T08:42:11.594Z,97840.40
2023-01-09T08:44:58.616Z,97833.40
2023-01-09T08:47:27.410Z,97828.20
2023-01-09T08:49:55.197Z,97833.00
2023-01-09T08:52:22.999Z,97821.00
2023-01-09T08:54:51.044Z,97827.60
2023-01-09T08:57:19.095Z,97819.00
2023-01-09T08:59:46.963Z,97819.20
2023-01-09T09:02:14.949Z,97811.00
2023-01-09T09:04:42.882Z,97814.20
2023-01-09T09:07:10.718Z,97816.40
2023-01-09T09:09:38.858Z,97813.60
2023-01-09T09:12:07.375Z,97816.60
2023-01-09T09:14:55.160Z,97814.40
2023-01-09T09:17:23.298Z,97818.20
2023-01-09T09:19:51.188Z,97806.00
2023-01-09T09:22:19.191Z,97809.60
2023-01-09T09:24:47.175Z,97810.20
2023-01-09T09:27:15.056Z,97804.40
2023-01-09T09:29:42.971Z,97800.20
2023-01-09T09:32:10.887Z,97795.20
2023-01-09T09:34:38.784Z,97789.20
2023-01-09T09:37:07.045Z,97787.40
2023-01-09T09:39:35.079Z,97783.00
2023-01-09T09:42:56.201Z,97781.60
2023-01-09T09:45:51.862Z,97771.40
2023-01-09T09:48:48.774Z,97761.80
2023-01-09T09:52:11.233Z,97754.60
2023-01-09T09:54:47.332Z,97762.60
2023-01-09T09:57:18.883Z,97756.00
2023-01-09T09:59:48.342Z,97751.00
2023-01-09T10:02:31.235Z,97741.00
2023-01-09T10:05:20.793Z,97736.80
2023-01-09T10:07:51.045Z,97731.20
2023-01-09T10:10:44.215Z,97730.60
2023-01-09T10:13:35.947Z,97731.60
2023-01-09T10:16:45.303Z,97726.80
2023-01-09T10:19:47.879Z,97726.80
2023-01-09T10:22:32.424Z,97725.80
2023-01-09T10:25:27.528Z,97717.80
2023-01-09T10:28:59.618Z,97713.40
2023-01-09T10:31:50.513Z,97706.60
2023-01-09T10:35:00.152Z,97702.40
2023-01-09T10:37:45.487Z,97703.80
2023-01-09T10:40:24.389Z,97691.80
2023-01-09T10:42:57.681Z,97701.20
2023-01-09T10:45:31.912Z,97692.00
2023-01-09T10:48:35.764Z,97690.20
2023-01-09T10:51:10.164Z,97678.40
2023-01-09T10:53:39.888Z,97685.00
2023-01-09T10:56:37.016Z,97686.20
2023-01-09T10:59:05.186Z,97691.20
2023-01-09T11:01:35.106Z,97675.60
2023-01-09T11:04:03.007Z,97678.00
2023-01-09T11:06:45.696Z,97675.80
2023-01-09T11:09:15.253Z,97668.40
2023-01-09T11:11:44.385Z,97675.40
2023-01-09T11:14:27.798Z,97676.00
2023-01-09T11:16:58.484Z,97673.60
2023-01-09T11:19:26.829Z,97674.00
2023-01-09T11:22:09.172Z,97671.80
2023-01-09T11:24:37.307Z,97671.80
2023-01-09T11:27:14.490Z,97666.00
2023-01-09T11:29:42.875Z,97666.40
2023-01-09T11:32:37.254Z,97663.60
2023-01-09T11:35:15.468Z,97659.80
2023-01-09T11:37:43.475Z,97659.40
2023-01-09T11:40:19.114Z,97652.80
2023-01-09T11:43:15.232Z,97648.40
2023-01-09T11:45:56.334Z,97647.60
2023-01-09T11:48:33.941Z,97642.20
2023-01-09T11:51:05.601Z,97636.20
2023-01-09T11:53:56.002Z,97636.00
2023-01-09T11:56:23.968Z,97643.20
2023-01-09T11:58:52.106Z,97639.20
2023-01-09T12:01:55.684Z,97635.60
2023-01-09T12:04:49.642Z,97642.60
2023-01-09T12:07:57.582Z,97641.40
2023-01-09T12:10:38.223Z,97642.20
2023-01-09T12:13:31.837Z,97642.20
2023-01-09T12:16:39.096Z,97637.20
2023-01-09T12:19:10.183Z,97636.60
2023-01-09T12:22:02.913Z,97635.60
2023-01-09T12:24:51.388Z,97646.00
2023-01-09T12:27:32.404Z,97637.80
2023-01-09T12:30:21.308Z,97631.20
2023-01-09T12:33:25.325Z,97633.40
2023-01-09T12:36:32.726Z,97630.00
2023-01-09T12:39:23.438Z,97630.00
2023-01-09T12:42:13.872Z,97632.40
2023-01-09T12:44:59.126Z,97632.40
2023-01-09T12:47:46.224Z,97634.20
2023-01-09T12:50:14.389Z,97634.00
2023-01-09T12:53:11.468Z,97638.60
2023-01-09T12:55:57.623Z,97634.40
2023-01-09T12:58:57.481Z,97638.80
2023-01-09T13:01:40.235Z,97634.00
2023-01-09T13:04:17.479Z,97631.40
2023-01-09T13:06:51.088Z,97626.60
2023-01-09T13:09:44.250Z,97627.00
2023-01-09T13:12:21.775Z,97623.80
2023-01-09T13:15:27.711Z,97628.20
2023-01-09T13:18:22.721Z,97627.60
2023-01-09T13:20:56.689Z,97634.40
2023-01-09T13:24:21.086Z,97626.80
2023-01-09T13:27:10.550Z,97625.80
2023-01-09T13:29:43.829Z,97625.80
2023-01-09T13:32:46.587Z,97622.40
2023-01-09T13:35:14.739Z,97636.40
2023-01-09T13:37:42.986Z,97639.00
2023-01-09T13:40:19.893Z,97634.00
2023-01-09T13:43:05.057Z,97638.40
2023-01-09T13:45:34.909Z,97635.20
2023-01-09T13:48:09.935Z,97637.20
2023-01-09T13:50:38.821Z,97640.40
2023-01-09T13:53:18.632Z,97636.40
2023-01-09T13:55:59.305Z,97640.20
2023-01-09T13:58:48.554Z,97639.20
2023-01-09T14:01:35.494Z,97645.60
2023-01-09T14:04:26.854Z,97640.60
2023-01-09T14:07:21.123Z,97637.40
2023-01-09T14:10:04.747Z,97647.00
2023-01-09T14:12:40.766Z,97664.80
2023-01-09T14:15:28.283Z,97671.80
2023-01-09T14:18:18.812Z,97667.80
2023-01-09T14:21:11.007Z,97669.00
2023-01-09T14:24:05.331Z,97680.40
2023-01-09T14:26:55.261Z,97689.60
2023-01-09T14:29:43.537Z,97688.60
2023-01-09T14:32:23.701Z,97696.40
2023-01-09T14:35:26.055Z,97688.00
2023-01-09T14:38:17.483Z,97693.60
2023-01-09T14:41:12.783Z,97695.60
2023-01-09T14:44:03.933Z,97700.00
2023-01-09T14:46:35.604Z,97702.60
2023-01-09T14:49:07.821Z,97702.60
2023-01-09T14:51:38.282Z,97710.60
2023-01-09T14:54:27.546Z,97711.20
2023-01-09T14:56:55.692Z,97704.80
2023-01-09T14:59:23.623Z,97705.60
2023-01-09T15:01:51.793Z,97713.40
2023-01-09T15:04:31.568Z,97711.00
2023-01-09T15:06:59.520Z,97708.40
2023-01-09T15:09:30.045Z,97714.40
2023-01-09T15:12:04.449Z,97720.80
2023-01-09T15:14:38.034Z,97728.00
2023-01-09T15:17:07.294Z,97735.20
2023-01-09T15:19:35.119Z,97732.20
2023-01-09T15:22:05.785Z,97729.60
2023-01-09T15:24:34.684Z,97744.80
2023-01-09T15:27:15.550Z,97752.60
2023-01-09T15:29:43.407Z,97756.20
2023-01-09T15:32:28.809Z,97765.20
2023-01-09T15:34:57.184Z,97768.00
2023-01-09T15:37:30.010Z,97769.20
2023-01-09T15:39:58.348Z,97774.40
2023-01-09T15:42:48.451Z,97771.00
2023-01-09T15:45:27.061Z,97777.60
2023-01-09T15:47:55.874Z,97779.60
2023-01-09T15:50:28.883Z,97788.20
2023-01-09T15:52:56.786Z,97792.00
2023-01-09T15:55:35.868Z,97789.00
2023-01-09T15:58:04.784Z,97788.00
2023-01-09T16:00:41.947Z,97791.60
2023-01-09T16:03:28.326Z,97808.40
2023-01-09T16:06:06.848Z,97805.40
2023-01-09T16:08:47.710Z,97802.80
2023-01-09T16:11:46.373Z,97799.80
2023-01-09T16:14:27.660Z,97796.60
2023-01-09T16:17:00.166Z,97792.20
2023-01-09T16:19:45.854Z,97795.00
2023-01-09T16:22:31.644Z,97802.40
2023-01-09T16:25:02.538Z,97793.00
2023-01-09T16:27:33.570Z,97787.40
2023-01-09T16:30:07.435Z,97790.60
2023-01-09T16:32:45.834Z,97801.00
2023-01-09T16:35:16.843Z,97801.40
2023-01-09T16:37:44.896Z,97800.20
2023-01-09T16:40:18.768Z,97811.00
2023-01-09T16:43:03.943Z,97821.20
2023-01-09T16:45:40.905Z,97822.20
2023-01-09T16:48:19.648Z,97831.60
2023-01-09T16:50:47.767Z,97841.80
2023-01-09T16:53:17.766Z,97851.80
2023-01-09T16:55:46.177Z,97846.00
2023-01-09T16:58:25.627Z,97845.20
2023-01-09T17:00:53.546Z,97849.20
2023-01-09T17:03:21.478Z,97850.20
2023-01-09T17:05:51.347Z,97855.00
2023-01-09T17:08:30.768Z,97851.40
2023-01-09T17:11:00.791Z,97852.40
2023-01-09T17:13:30.085Z,97844.60
2023-01-09T17:15:58.553Z,97850.20
2023-01-09T17:18:27.353Z,97847.80
2023-01-09T17:20:57.869Z,97855.40
2023-01-09T17:23:26.295Z,97864.20
2023-01-09T17:26:17.530Z,97869.80
2023-01-09T17:28:50.516Z,97870.80
2023-01-09T17:31:19.159Z,97873.40
2023-01-09T17:33:47.419Z,97875.00
2023-01-09T17:36:33.647Z,97876.00
2023-01-09T17:39:01.736Z,97876.20
2023-01-09T17:41:30.997Z,97879.40
2023-01-09T17:43:59.619Z,97890.20
2023-01-09T17:46:31.003Z,97895.00
2023-01-09T17:48:59.339Z,97900.40
2023-01-09T17:51:27.672Z,97903.80
2023-01-09T17:53:56.199Z,97903.80
2023-01-09T17:56:30.579Z,97906.60
2023-01-09T17:58:58.984Z,97907.20
2023-01-09T18:01:27.085Z,97906.00
2023-01-09T18:03:55.188Z,97909.60
2023-01-09T18:06:25.009Z,97911.40
2023-01-09T18:08:53.136Z,97918.60
2023-01-09T18:11:21.725Z,97922.80
2023-01-09T18:13:51.068Z,97929.60
2023-01-09T18:16:25.503Z,97933.20
2023-01-09T18:18:55.425Z,97943.80
2023-01-09T18:21:24.059Z,97943.80
2023-01-09T18:23:52.160Z,97955.40
2023-01-09T18:26:21.255Z,97949.00
2023-01-09T18:28:57.939Z,97950.60
2023-01-09T18:31:27.527Z,97940.20
2023-01-09T18:33:57.127Z,97943.40
2023-01-09T18:36:30.140Z,97943.60
2023-01-09T18:39:00.245Z,97940.40
2023-01-09T18:41:28.839Z,97946.00
2023-01-09T18:43:59.092Z,97944.40
2023-01-09T18:46:30.909Z,97949.40
2023-01-09T18:49:01.442Z,97952.40
2023-01-09T18:51:29.502Z,97961.00
2023-01-09T18:53:58.674Z,97959.20
2023-01-09T18:56:26.636Z,97953.80
2023-01-09T18:58:57.179Z,97951.00
2023-01-09T19:01:29.701Z,97947.80
2023-01-09T19:03:59.400Z,97946.00
2023-01-09T19:06:28.917Z,97954.40
2023-01-09T19:08:59.211Z,97956.20
2023-01-09T19:11:27.423Z,97959.40
2023-01-09T19:13:55.371Z,97964.40
2023-01-09T19:16:23.509Z,97968.00
2023-01-09T19:18:51.509Z,97975.40
2023-01-09T19:21:22.090Z,97977.80
2023-01-09T19:23:50.118Z,97974.60
2023-01-09T19:26:26.393Z,97973.80
2023-01-09T19:28:58.094Z,97983.40
2023-01-09T19:31:28.295Z,97981.80
2023-01-09T19:33:56.924Z,97984.80
2023-01-09T19:36:24.767Z,97987.20
2023-01-09T19:39:00.592Z,97991.40
2023-01-09T19:41:28.909Z,97994.00
2023-01-09T19:43:57.160Z,98000.60
2023-01-09T19:46:26.083Z,98001.60
2023-01-09T19:48:54.393Z,98003.80
2023-01-09T19:51:22.534Z,98017.80
2023-01-09T19:53:53.624Z,98021.80
2023-01-09T19:56:23.474Z,98015.40
2023-01-09T19:58:57.039Z,98019.80
2023-01-09T20:01:28.310Z,98040.20
2023-01-09T20:03:58.031Z,98043.60
2023-01-09T20:06:27.621Z,98038.80
2023-01-09T20:08:57.293Z,98041.00
2023-01-09T20:11:27.007Z,98046.80
2023-01-09T20:13:57.853Z,98048.20
2023-01-09T20:16:28.663Z,98057.80
2023-01-09T20:19:03.683Z,98061.20
2023-01-09T20:21:31.788Z,98066.60
2023-01-09T20:24:00.617Z,98070.20
2023-01-09T20:26:28.954Z,98067.60
2023-01-09T20:28:57.697Z,98066.60
2023-01-09T20:31:31.199Z,98067.80
2023-01-09T20:34:02.728Z,98066.80
2023-01-09T20:36:31.245Z,98070.20
2023-01-09T20:39:01.874Z,98069.40
2023-01-09T20:41:31.408Z,98072.60
2023-01-09T20:44:01.888Z,98072.40
2023-01-09T20:46:31.653Z,98071.20
2023-01-09T20:49:02.031Z,98075.80
2023-01-09T20:51:31.097Z,98074.80
2023-01-09T20:53:59.063Z,98079.20
2023-01-09T20:56:29.171Z,98085.60
2023-01-09T20:58:58.067Z,98085.00
2023-01-09T21:01:26.162Z,98088.80
2023-01-09T21:03:55.136Z,98094.00
2023-01-09T21:06:24.411Z,98096.80
2023-01-09T21:08:53.217Z,98101.00
2023-01-09T21:11:21.870Z,98106.00
2023-01-09T21:13:49.978Z,98116.40
2023-01-09T21:16:21.561Z,98121.20
2023-01-09T21:18:49.957Z,98118.60
2023-01-09T21:21:21.432Z,98119.80
2023-01-09T21:23:54.750Z,98121.80
2023-01-09T21:26:26.643Z,98122.40
2023-01-09T21:28:55.480Z,98130.00
2023-01-09T21:31:38.612Z,98128.80
2023-01-09T21:34:08.156Z,98136.40
2023-01-09T21:36:36.445Z,98135.40
2023-01-09T21:39:07.930Z,98140.40
2023-01-09T21:41:56.066Z,98143.00
2023-01-09T21:44:42.707Z,98147.80
2023-01-09T21:47:10.824Z,98145.80
2023-01-09T21:49:43.294Z,98149.60
2023-01-09T21:52:13.095Z,98156.40
2023-01-09T21:54:41.670Z,98162.00
2023-01-09T21:57:10.160Z,98161.60
2023-01-09T21:59:39.348Z,98169.80
2023-01-09T22:02:13.279Z,98171.00
2023-01-09T22:04:42.973Z,98165.00
2023-01-09T22:07:10.953Z,98160.80
2023-01-09T22:09:39.495Z,98164.60
2023-01-09T22:12:07.371Z,98168.00
2023-01-09T22:14:38.802Z,98169.20
2023-01-09T22:17:06.863Z,98169.40
2023-01-09T22:19:34.963Z,98172.40
2023-01-09T22:22:03.719Z,98172.40
2023-01-09T22:24:31.609Z,98171.40
2023-01-09T22:26:59.466Z,98166.60
2023-01-09T22:29:27.427Z,98166.40
2023-01-09T22:31:56.495Z,98160.40
2023-01-09T22:34:25.134Z,98161.20
2023-01-09T22:36:53.030Z,98164.80
2023-01-09T22:39:21.032Z,98165.20
2023-01-09T22:41:54.537Z,98167.00
2023-01-09T22:44:22.539Z,98173.80
2023-01-09T22:46:50.874Z,98181.60
2023-01-09T22:49:18.698Z,98182.20
2023-01-09T22:51:47.455Z,98192.00
2023-01-09T22:54:15.541Z,98197.40
2023-01-09T22:56:43.433Z,98199.80
2023-01-09T22:59:11.423Z,98198.60
2023-01-09T23:01:39.378Z,98194.00
2023-01-09T23:04:13.562Z,98204.60
2023-01-09T23:06:59.184Z,98206.60
2023-01-09T23:09:27.293Z,98220.20
2023-01-09T23:12:04.554Z,98220.60
2023-01-09T23:14:37.698Z,98217.80
2023-01-09T23:17:06.908Z,98227.60
2023-01-09T23:19:34.795Z,98227.00
2023-01-09T23:22:03.837Z,98227.80
2023-01-09T23:24:32.912Z,98237.60
2023-01-09T23:27:00.739Z,98239.80
2023-01-09T23:29:29.983Z,98238.60
2023-01-09T23:31:58.176Z,98238.00
2023-01-09T23:34:27.716Z,98242.40
2023-01-09T23:36:57.668Z,98239.60
2023-01-09T23:39:25.652Z,98237.80
2023-01-09T23:42:12.152Z,98229.20
2023-01-09T23:44:39.985Z,98235.20
2023-01-09T23:47:08.467Z,98239.60
2023-01-09T23:49:36.814Z,98244.80
2023-01-09T23:52:06.684Z,98244.40
2023-01-09T23:54:35.542Z,98248.60
2023-01-09T23:57:03.793Z,98255.40
2023-01-09T23:59:31.651Z,98250.80
